createdAt,value
2019-04-22T00:01:23.143Z,44.40
2019-04-22T00:03:55.175Z,44.70
2019-04-22T00:06:48.283Z,44.60
2019-04-22T00:09:19.508Z,44.50
2019-04-22T00:11:54.259Z,44.70
2019-04-22T00:14:14.811Z,44.80
2019-04-22T00:16:53.590Z,45.10
2019-04-22T00:19:20.881Z,45.10
2019-04-22T00:21:55.302Z,45.30
2019-04-22T00:24:23.986Z,45.40
2019-04-22T00:26:58.865Z,45.70
2019-04-22T00:29:42.554Z,45.80
2019-04-22T00:32:04.954Z,46.00
2019-04-22T00:34:42.745Z,45.80
2019-04-22T00:37:17.559Z,45.90
2019-04-22T00:39:46.554Z,46.30
2019-04-22T00:42:18.160Z,46.50
2019-04-22T00:44:57.375Z,46.90
2019-04-22T00:47:23.140Z,46.80
2019-04-22T00:52:22.366Z,47.40
2019-04-22T00:54:59.478Z,47.50
2019-04-22T00:57:21.637Z,47.50
2019-04-22T00:59:52.365Z,47.50
2019-04-22T01:02:27.477Z,47.80
2019-04-22T01:04:55.969Z,48.10
2019-04-22T01:07:27.055Z,48.20
2019-04-22T01:09:58.887Z,48.30
2019-04-22T01:15:00.894Z,48.60
2019-04-22T01:17:34.487Z,48.50
2019-04-22T01:20:13.193Z,48.60
2019-04-22T01:22:27.898Z,48.60
2019-04-22T01:25:05.001Z,48.70
2019-04-22T01:27:32.392Z,48.80
2019-04-22T01:29:59.733Z,48.80
2019-04-22T01:32:22.903Z,48.70
2019-04-22T01:35:02.379Z,48.90
2019-04-22T01:37:35.915Z,49.20
2019-04-22T01:40:21.426Z,49.20
2019-04-22T01:42:54.421Z,49.10
2019-04-22T01:45:22.264Z,48.70
2019-04-22T01:48:02.833Z,49.70
2019-04-22T01:50:22.543Z,48.90
2019-04-22T01:52:53.155Z,48.80
2019-04-22T01:55:27.435Z,49.30
2019-04-22T01:57:47.594Z,49.20
2019-04-22T02:00:16.433Z,49.20
2019-04-22T02:03:02.456Z,49.00
2019-04-22T02:05:22.846Z,49.00
2019-04-22T02:08:02.561Z,49.10
2019-04-22T02:10:37.030Z,49.20
2019-04-22T02:13:02.037Z,49.00
2019-04-22T02:15:47.763Z,49.30
2019-04-22T02:18:03.358Z,49.30
2019-04-22T02:20:32.994Z,49.50
2019-04-22T02:23:40.229Z,49.30
2019-04-22T02:25:59.310Z,49.50
2019-04-22T02:28:33.979Z,49.50
2019-04-22T02:33:54.398Z,49.90
2019-04-22T02:46:26.721Z,50.70
2019-04-22T02:51:10.352Z,51.00
2019-04-22T02:54:17.233Z,51.20
2019-04-22T02:56:23.071Z,51.40
2019-04-22T02:58:55.129Z,51.30
2019-04-22T03:06:24.087Z,51.90
2019-04-22T03:08:45.968Z,51.60
2019-04-22T03:24:15.677Z,52.10
2019-04-22T03:26:27.232Z,52.20
2019-04-22T03:29:04.658Z,52.20
2019-04-22T03:37:23.212Z,52.10
2019-04-22T03:49:56.538Z,52.80
2019-04-22T03:52:14.792Z,52.80
2019-04-22T03:54:54.521Z,52.70
2019-04-22T04:02:16.205Z,52.60
2019-04-22T04:04:37.107Z,52.50
2019-04-22T04:07:22.521Z,52.20
2019-04-22T04:09:50.005Z,52.50
2019-04-22T04:14:58.170Z,52.50
2019-04-22T04:20:03.412Z,53.10
2019-04-22T04:22:33.917Z,53.00
2019-04-22T04:27:43.563Z,53.00
2019-04-22T04:30:08.322Z,53.10
2019-04-22T04:32:34.318Z,53.20
2019-04-22T04:35:19.436Z,53.40
2019-04-22T04:37:40.669Z,53.50
2019-04-22T04:47:43.825Z,52.80
2019-04-22T04:50:09.295Z,52.70
2019-04-22T04:55:12.334Z,52.60
2019-04-22T05:02:46.622Z,52.50
2019-04-22T05:15:11.318Z,52.60
2019-04-22T05:22:39.953Z,53.20
2019-04-22T05:25:14.667Z,52.80
2019-04-22T05:27:40.019Z,52.80
2019-04-22T05:35:14.275Z,53.50
2019-04-22T05:37:45.735Z,53.20
2019-04-22T05:40:20.260Z,53.00
2019-04-22T05:42:44.200Z,53.10
2019-04-22T05:45:17.893Z,53.20
2019-04-22T05:47:47.048Z,53.30
2019-04-22T05:52:54.416Z,53.00
2019-04-22T05:55:30.518Z,53.20
2019-04-22T05:58:08.655Z,52.50
2019-04-22T06:03:11.125Z,52.80
2019-04-22T06:05:32.070Z,52.10
2019-04-22T06:08:02.435Z,51.90
2019-04-22T06:13:02.234Z,52.10
2019-04-22T06:15:36.313Z,52.10
2019-04-22T06:18:16.255Z,52.00
2019-04-22T06:20:57.567Z,51.70
2019-04-22T06:23:24.185Z,52.40
2019-04-22T06:28:29.083Z,52.10
2019-04-22T06:33:24.161Z,50.80
2019-04-22T06:36:00.478Z,50.70
2019-04-22T06:40:58.424Z,50.70
2019-04-22T06:43:22.437Z,50.40
2019-04-22T06:45:51.651Z,51.20
2019-04-22T06:51:18.360Z,50.80
2019-04-22T06:53:32.736Z,50.30
2019-04-22T06:56:00.297Z,50.60
2019-04-22T06:58:29.052Z,50.60
2019-04-22T07:01:05.680Z,50.70
2019-04-22T07:03:41.724Z,50.90
2019-04-22T07:06:08.049Z,49.60
2019-04-22T07:11:04.555Z,50.20
2019-04-22T07:13:56.308Z,49.70
2019-04-22T07:16:03.624Z,50.00
2019-04-22T07:21:06.573Z,49.40
2019-04-22T07:26:07.630Z,49.00
2019-04-22T07:28:37.163Z,48.00
2019-04-22T07:31:28.943Z,48.10
2019-04-22T07:33:49.840Z,47.30
2019-04-22T07:38:45.613Z,47.70
2019-04-22T07:41:14.707Z,48.70
2019-04-22T07:46:18.633Z,46.50
2019-04-22T07:48:53.170Z,46.80
2019-04-22T07:51:23.418Z,46.20
2019-04-22T07:53:57.465Z,46.90
2019-04-22T07:56:24.701Z,45.50
2019-04-22T07:58:56.858Z,45.70
2019-04-22T08:01:26.893Z,45.40
2019-04-22T08:06:31.344Z,44.60
2019-04-22T08:09:00.265Z,43.40
2019-04-22T08:11:46.996Z,43.70
2019-04-22T08:14:01.568Z,43.90
2019-04-22T08:16:37.073Z,44.50
2019-04-22T08:19:10.542Z,43.80
2019-04-22T08:21:38.393Z,44.60
2019-04-22T08:24:07.878Z,44.90
2019-04-22T08:26:42.054Z,44.80
2019-04-22T08:29:17.182Z,44.70
2019-04-22T08:31:49.182Z,44.30
2019-04-22T08:34:14.203Z,44.60
2019-04-22T08:39:21.720Z,44.30
2019-04-22T08:41:39.966Z,43.50
2019-04-22T08:44:17.368Z,43.20
2019-04-22T08:46:56.178Z,43.90
2019-04-22T08:49:16.080Z,43.40
2019-04-22T08:51:49.450Z,43.30
2019-04-22T08:54:25.966Z,43.10
2019-04-22T08:56:52.431Z,43.40
2019-04-22T08:59:43.200Z,43.80
2019-04-22T09:02:05.395Z,43.10
2019-04-22T09:04:23.371Z,43.90
2019-04-22T09:09:34.028Z,41.40
2019-04-22T09:12:00.260Z,41.30
2019-04-22T09:14:37.881Z,41.40
2019-04-22T09:19:38.551Z,42.10
2019-04-22T09:24:36.927Z,41.60
2019-04-22T09:27:13.134Z,41.10
2019-04-22T09:29:39.722Z,41.00
2019-04-22T09:32:14.850Z,41.50
2019-04-22T09:34:49.635Z,41.80
2019-04-22T09:37:20.775Z,40.20
2019-04-22T09:39:51.642Z,40.70
2019-04-22T09:42:21.925Z,41.00
2019-04-22T09:44:47.524Z,40.50
2019-04-22T09:47:19.231Z,40.40
2019-04-22T09:52:14.977Z,39.60
2019-04-22T09:57:24.511Z,40.10
2019-04-22T10:00:00.643Z,40.50
2019-04-22T10:05:00.204Z,39.50
2019-04-22T10:07:32.133Z,38.20
2019-04-22T10:10:03.283Z,37.80
2019-04-22T10:12:32.233Z,38.40
2019-04-22T10:15:00.140Z,38.20
2019-04-22T10:17:32.298Z,36.80
2019-04-22T10:19:59.656Z,36.70
2019-04-22T10:22:44.004Z,37.40
2019-04-22T10:25:08.260Z,36.20
2019-04-22T10:27:32.460Z,38.10
2019-04-22T10:30:02.774Z,37.50
2019-04-22T10:32:35.372Z,37.30
2019-04-22T10:35:14.682Z,36.10
2019-04-22T10:37:40.565Z,37.20
2019-04-22T10:40:17.757Z,36.80
2019-04-22T10:42:47.389Z,37.60
2019-04-22T10:45:18.376Z,37.30
2019-04-22T10:47:48.052Z,37.30
2019-04-22T10:50:18.697Z,36.50
2019-04-22T10:52:48.038Z,35.70
2019-04-22T10:55:17.378Z,37.50
2019-04-22T10:57:46.679Z,36.70
2019-04-22T11:00:17.670Z,36.20
2019-04-22T11:02:47.825Z,36.50
2019-04-22T11:05:17.413Z,35.00
2019-04-22T11:07:53.977Z,34.70
2019-04-22T11:10:34.596Z,35.00
2019-04-22T11:12:49.337Z,35.50
2019-04-22T11:15:18.790Z,34.80
2019-04-22T11:17:49.593Z,33.70
2019-04-22T11:20:19.924Z,34.70
2019-04-22T11:22:50.924Z,33.90
2019-04-22T11:25:21.669Z,33.80
2019-04-22T11:27:51.361Z,35.00
2019-04-22T11:30:24.299Z,34.10
2019-04-22T11:32:52.190Z,33.40
2019-04-22T11:35:21.972Z,33.10
2019-04-22T11:37:52.442Z,34.50
2019-04-22T11:40:28.563Z,33.00
2019-04-22T11:42:54.433Z,32.10
2019-04-22T11:45:24.116Z,32.50
2019-04-22T11:47:53.514Z,32.60
2019-04-22T11:50:24.218Z,31.80
2019-04-22T11:52:55.007Z,32.00
2019-04-22T11:55:24.734Z,31.40
2019-04-22T11:57:54.143Z,32.20
2019-04-22T12:00:30.751Z,32.00
2019-04-22T12:03:00.873Z,32.00
2019-04-22T12:05:30.470Z,31.30
2019-04-22T12:08:02.826Z,30.60
2019-04-22T12:10:38.951Z,29.70
2019-04-22T12:13:04.011Z,30.60
2019-04-22T12:15:33.297Z,28.90
2019-04-22T12:18:03.705Z,28.50
2019-04-22T12:20:33.131Z,28.60
2019-04-22T12:23:03.249Z,28.50
2019-04-22T12:25:43.418Z,28.80
2019-04-22T12:28:05.213Z,29.10
2019-04-22T12:30:35.253Z,28.80
2019-04-22T12:33:07.343Z,28.60
2019-04-22T12:35:36.931Z,28.60
2019-04-22T12:38:08.863Z,28.70
2019-04-22T12:40:46.436Z,29.20
2019-04-22T12:43:10.723Z,28.20
2019-04-22T12:45:40.376Z,28.30
2019-04-22T12:48:10.147Z,28.30
2019-04-22T12:50:43.442Z,27.90
2019-04-22T12:53:14.956Z,28.40
2019-04-22T12:55:42.045Z,29.10
2019-04-22T12:58:11.835Z,29.00
2019-04-22T13:00:42.773Z,29.50
2019-04-22T13:03:13.694Z,28.90
2019-04-22T13:05:43.135Z,30.40
2019-04-22T13:08:13.763Z,28.90
2019-04-22T13:10:53.371Z,29.10
2019-04-22T13:13:15.418Z,28.70
2019-04-22T13:15:44.769Z,29.50
2019-04-22T13:18:27.152Z,27.80
2019-04-22T13:20:46.282Z,28.80
2019-04-22T13:23:15.790Z,27.70
2019-04-22T13:25:45.178Z,27.80
2019-04-22T13:28:15.472Z,27.90
2019-04-22T13:30:46.405Z,27.90
2019-04-22T13:33:16.793Z,28.40
2019-04-22T13:35:47.808Z,28.80
2019-04-22T13:38:17.486Z,28.80
2019-04-22T13:41:00.943Z,28.30
2019-04-22T13:43:18.920Z,27.80
2019-04-22T13:45:49.788Z,28.00
2019-04-22T13:48:40.026Z,27.80
2019-04-22T13:51:25.748Z,27.70
2019-04-22T13:54:14.395Z,28.40
2019-04-22T13:56:15.534Z,27.80
2019-04-22T13:58:38.212Z,28.30
2019-04-22T14:00:56.645Z,27.70
2019-04-22T14:03:48.955Z,27.50
2019-04-22T14:06:18.685Z,27.40
2019-04-22T14:08:49.432Z,26.90
2019-04-22T14:11:27.720Z,27.10
2019-04-22T14:13:50.267Z,26.60
2019-04-22T14:16:19.720Z,27.10
2019-04-22T14:18:49.788Z,27.00
2019-04-22T14:21:20.855Z,27.00
2019-04-22T14:23:50.898Z,26.70
2019-04-22T14:26:20.368Z,26.20
2019-04-22T14:28:50.073Z,26.40
2019-04-22T14:31:20.397Z,26.60
2019-04-22T14:33:53.373Z,26.10
2019-04-22T14:36:21.353Z,26.50
2019-04-22T14:38:52.207Z,26.10
2019-04-22T14:41:40.662Z,26.30
2019-04-22T14:46:49.334Z,26.30
2019-04-22T14:49:17.811Z,26.60
2019-04-22T14:51:48.474Z,26.40
2019-04-22T14:54:13.962Z,26.10
2019-04-22T14:56:28.666Z,25.00
2019-04-22T14:58:58.844Z,26.50
2019-04-22T15:01:28.789Z,25.70
2019-04-22T15:03:58.798Z,26.30
2019-04-22T15:06:28.586Z,26.50
2019-04-22T15:08:59.606Z,25.90
2019-04-22T15:11:36.324Z,26.30
2019-04-22T15:14:01.314Z,26.30
2019-04-22T15:17:02.662Z,26.20
2019-04-22T15:19:38.010Z,26.50
2019-04-22T15:22:08.487Z,26.10
2019-04-22T15:24:38.789Z,26.30
2019-04-22T15:27:08.770Z,26.40
2019-04-22T15:29:39.060Z,26.50
2019-04-22T15:32:09.355Z,26.90
2019-04-22T15:34:39.528Z,26.60
2019-04-22T15:37:08.852Z,26.60
2019-04-22T15:39:39.439Z,26.20
2019-04-22T15:42:14.534Z,26.30
2019-04-22T15:44:40.029Z,27.00
2019-04-22T15:47:11.006Z,27.50
2019-04-22T15:49:40.560Z,27.20
2019-04-22T15:52:10.463Z,27.50
2019-04-22T15:54:39.865Z,27.80
2019-04-22T15:57:10.791Z,27.80
2019-04-22T15:59:59.326Z,27.30
2019-04-22T16:02:14.011Z,27.50
2019-04-22T16:04:44.503Z,27.30
2019-04-22T16:07:14.807Z,27.60
2019-04-22T16:09:45.619Z,27.70
2019-04-22T16:12:22.712Z,27.80
2019-04-22T16:14:51.332Z,28.00
2019-04-22T16:17:16.993Z,27.90
2019-04-22T16:19:46.693Z,28.00
2019-04-22T16:22:18.980Z,28.00
2019-04-22T16:25:11.376Z,28.20
2019-04-22T16:27:42.643Z,28.60
2019-04-22T16:30:13.223Z,29.20
2019-04-22T16:32:43.512Z,29.00
2019-04-22T16:35:14.513Z,28.70
2019-04-22T16:37:43.852Z,28.70
2019-04-22T16:40:14.639Z,29.00
2019-04-22T16:42:52.459Z,28.80
2019-04-22T16:45:17.784Z,29.10
2019-04-22T16:47:47.131Z,28.50
2019-04-22T16:50:18.075Z,28.80
2019-04-22T16:52:48.173Z,29.20
2019-04-22T16:55:18.924Z,28.80
2019-04-22T16:57:48.433Z,29.20
2019-04-22T17:00:18.673Z,29.00
2019-04-22T17:03:06.740Z,29.40
2019-04-22T17:05:59.301Z,29.80
2019-04-22T17:08:28.700Z,30.00
2019-04-22T17:10:57.966Z,30.10
2019-04-22T17:13:30.607Z,30.40
2019-04-22T17:16:00.503Z,30.80
2019-04-22T17:18:29.214Z,31.20
2019-04-22T17:20:58.622Z,31.10
2019-04-22T17:23:28.000Z,31.10
2019-04-22T17:25:58.340Z,31.00
2019-04-22T17:28:27.920Z,32.20
2019-04-22T17:30:57.540Z,32.00
2019-04-22T17:33:28.738Z,32.10
2019-04-22T17:35:59.097Z,32.40
2019-04-22T17:38:37.166Z,32.10
2019-04-22T17:41:12.701Z,32.00
2019-04-22T17:43:54.389Z,32.80
2019-04-22T17:46:48.221Z,32.60
2019-04-22T17:49:37.685Z,32.80
2019-04-22T17:54:50.300Z,33.10
2019-04-22T17:57:24.014Z,33.90
2019-04-22T17:59:51.910Z,33.80
2019-04-22T18:02:25.036Z,34.90
2019-04-22T18:04:43.929Z,34.40
2019-04-22T18:12:40.146Z,34.20
2019-04-22T18:15:19.174Z,34.70
2019-04-22T18:17:41.109Z,34.60
2019-04-22T18:20:04.708Z,35.20
2019-04-22T18:22:29.459Z,35.30
2019-04-22T18:25:02.067Z,35.70
2019-04-22T18:27:48.947Z,35.70
2019-04-22T18:30:08.123Z,35.90
2019-04-22T18:32:43.829Z,36.50
2019-04-22T18:35:26.223Z,36.00
2019-04-22T18:38:16.527Z,36.00
2019-04-22T18:40:34.783Z,36.20
2019-04-22T18:43:13.568Z,36.70
2019-04-22T18:48:05.254Z,37.90
2019-04-22T18:50:53.386Z,38.40
2019-04-22T18:53:27.319Z,39.00
2019-04-22T18:56:03.725Z,39.50
2019-04-22T18:58:32.240Z,40.00
2019-04-22T19:00:50.833Z,40.60
2019-04-22T19:03:24.279Z,41.20
2019-04-22T19:06:24.345Z,41.60
2019-04-22T19:08:43.034Z,41.70
2019-04-22T19:11:16.660Z,42.20
2019-04-22T19:16:33.405Z,42.40
2019-04-22T19:19:05.281Z,43.40
2019-04-22T19:21:16.243Z,43.30
2019-04-22T19:23:52.104Z,43.70
2019-04-22T19:26:32.476Z,44.10
2019-04-22T19:28:54.130Z,44.30
2019-04-22T19:31:24.679Z,44.60
2019-04-22T19:34:00.779Z,45.00
2019-04-22T19:36:25.747Z,45.30
2019-04-22T19:38:55.240Z,46.10
2019-04-22T19:41:30.590Z,45.70
2019-04-22T19:44:05.438Z,46.10
2019-04-22T19:46:28.597Z,46.50
2019-04-22T19:49:04.622Z,46.70
2019-04-22T19:51:38.388Z,47.30
2019-04-22T19:54:01.139Z,47.60
2019-04-22T19:56:29.517Z,47.80
2019-04-22T19:59:03.206Z,48.10
2019-04-22T20:02:03.844Z,48.40
2019-04-22T20:04:52.908Z,48.60
2019-04-22T20:07:26.302Z,48.80
2019-04-22T20:10:00.135Z,48.70
2019-04-22T20:12:27.873Z,49.00
2019-04-22T20:14:57.608Z,49.10
2019-04-22T20:17:31.645Z,49.20
2019-04-22T20:20:06.340Z,49.40
2019-04-22T20:22:29.922Z,49.40
2019-04-22T20:24:51.092Z,49.60
2019-04-22T20:27:33.280Z,50.20
2019-04-22T20:30:05.065Z,49.70
2019-04-22T20:32:36.111Z,49.10
2019-04-22T20:35:07.898Z,48.90
2019-04-22T20:37:39.908Z,49.10
2019-04-22T20:40:05.716Z,49.20
2019-04-22T20:42:43.636Z,49.50
2019-04-22T20:45:13.084Z,49.80
2019-04-22T20:47:34.103Z,50.00
2019-04-22T20:50:14.998Z,50.10
2019-04-22T20:52:50.797Z,50.20
2019-04-22T20:55:10.771Z,50.40
2019-04-22T20:57:47.992Z,50.20
2019-04-22T21:00:11.553Z,50.50
2019-04-22T21:02:37.640Z,50.40
2019-04-22T21:05:09.462Z,50.60
2019-04-22T21:07:47.932Z,50.50
2019-04-22T21:10:15.776Z,50.60
2019-04-22T21:12:41.798Z,50.40
2019-04-22T21:15:29.931Z,50.60
2019-04-22T21:17:53.518Z,50.60
2019-04-22T21:20:34.439Z,50.60
2019-04-22T21:22:58.448Z,50.90
2019-04-22T21:25:20.780Z,51.00
2019-04-22T21:28:06.202Z,51.30
2019-04-22T21:30:32.370Z,51.40
2019-04-22T21:32:58.354Z,51.20
2019-04-22T21:35:59.449Z,51.40
2019-04-22T21:38:09.818Z,51.30
2019-04-22T21:40:39.758Z,51.70
2019-04-22T21:43:12.031Z,51.50
2019-04-22T21:45:45.419Z,51.60
2019-04-22T21:48:28.112Z,51.70
2019-04-22T21:50:57.694Z,52.10
2019-04-22T21:53:31.502Z,51.80
2019-04-22T21:56:10.136Z,52.10
2019-04-22T21:58:31.799Z,52.00
2019-04-22T22:01:22.200Z,52.20
2019-04-22T22:03:55.792Z,52.10
2019-04-22T22:06:15.102Z,52.40
2019-04-22T22:08:57.865Z,52.70
2019-04-22T22:11:30.310Z,52.70
2019-04-22T22:14:01.934Z,52.70
2019-04-22T22:16:29.139Z,53.00
2019-04-22T22:19:08.165Z,53.00
2019-04-22T22:21:47.756Z,53.10
2019-04-22T22:24:30.049Z,53.20
2019-04-22T22:26:55.947Z,53.60
2019-04-22T22:29:43.266Z,53.60
2019-04-22T22:32:05.331Z,53.80
2019-04-22T22:34:31.466Z,53.90
2019-04-22T22:36:55.750Z,54.00
2019-04-22T22:39:28.119Z,54.10
2019-04-22T22:41:44.142Z,55.10
2019-04-22T22:44:21.107Z,54.60
2019-04-22T22:47:05.890Z,54.50
2019-04-22T22:49:45.192Z,55.10
2019-04-22T22:52:31.725Z,55.00
2019-04-22T22:54:43.958Z,55.20
2019-04-22T22:57:17.916Z,55.20
2019-04-22T22:59:38.950Z,55.40
2019-04-22T23:02:08.061Z,55.50
2019-04-22T23:04:45.379Z,55.60
2019-04-22T23:07:20.836Z,55.90
2019-04-22T23:09:47.350Z,55.70
2019-04-22T23:12:31.196Z,55.70
2019-04-22T23:14:50.045Z,55.80
2019-04-22T23:17:05.177Z,56.10
2019-04-22T23:19:28.098Z,56.00
2019-04-22T23:22:05.284Z,56.30
2019-04-22T23:25:19.186Z,56.20
2019-04-22T23:27:47.678Z,56.50
2019-04-22T23:30:36.232Z,56.60
2019-04-22T23:33:26.581Z,56.50
2019-04-22T23:36:15.082Z,56.70
2019-04-22T23:39:02.382Z,56.80
2019-04-22T23:41:51.361Z,56.90
2019-04-22T23:44:10.036Z,56.80
2019-04-22T23:46:56.697Z,57.00
2019-04-22T23:49:25.166Z,56.90
2019-04-22T23:52:08.904Z,57.10
2019-04-22T23:54:48.554Z,57.40
2019-04-22T23:57:06.198Z,57.50
2019-04-22T23:59:49.795Z,57.80
